Terminal Aerodrome Forecast
Issued by NWS

Home | Current Version | Previous Version | Text Only | Print | Product List | Glossary On
Versions: 1 2 3 4 5 6 7 8 9 10 11 12 13 14 15 16 17 18 19
000
FTAK31 PAJN 031141
TAFAJN
TAF
PAJN 031141Z 0312/0412 11015KT 6SM -SHRA SCT025 OVC035
      TEMPO 0312/0316 12015G25KT 4SM SHRA FEW015 BKN025 OVC035
     FM031800 12010KT P6SM VCSH SCT025 BKN035 OVC045
     FM032100 VRB05KT P6SM -SHRASN BKN035 OVC045=

USA.gov is the U.S. government's official web portal to all federal, state and local government web resources and services.